createdAt,value
2018-07-10T00:02:22.908Z,2.50
2018-07-10T00:05:01.838Z,2.30
2018-07-10T00:09:49.478Z,2.17
2018-07-10T00:12:17.273Z,2.23
2018-07-10T00:14:45.088Z,2.57
2018-07-10T00:17:13.025Z,2.77
2018-07-10T00:19:40.706Z,2.67
2018-07-10T00:22:08.551Z,2.57
2018-07-10T00:24:36.251Z,2.53
2018-07-10T00:27:04.090Z,2.77
2018-07-10T00:29:31.998Z,2.67
2018-07-10T00:31:59.710Z,2.40
2018-07-10T00:34:28.509Z,2.47
2018-07-10T00:36:56.184Z,2.70
2018-07-10T00:39:24.037Z,2.70
2018-07-10T00:41:51.897Z,2.60
2018-07-10T00:44:19.813Z,2.33
2018-07-10T00:46:47.544Z,2.50
2018-07-10T00:49:15.475Z,2.40
2018-07-10T00:51:43.376Z,2.30
2018-07-10T00:54:11.144Z,2.20
2018-07-10T00:56:38.891Z,2.60
2018-07-10T00:59:06.931Z,2.50
2018-07-10T01:01:35.055Z,2.93
2018-07-10T01:04:03.030Z,2.27
2018-07-10T01:06:31.201Z,2.20
2018-07-10T01:08:58.919Z,2.50
2018-07-10T01:11:26.916Z,2.20
2018-07-10T01:13:54.724Z,2.50
2018-07-10T01:16:33.069Z,2.30
2018-07-10T01:19:01.908Z,2.50
2018-07-10T01:21:29.552Z,2.37
2018-07-10T01:23:59.637Z,2.40
2018-07-10T01:26:29.706Z,2.80
2018-07-10T01:29:02.494Z,2.43
2018-07-10T01:31:30.503Z,2.40
2018-07-10T01:33:58.294Z,2.20
2018-07-10T01:36:26.042Z,2.53
2018-07-10T01:38:54.892Z,2.37
2018-07-10T01:41:22.613Z,2.60
2018-07-10T01:43:50.356Z,2.70
2018-07-10T01:46:18.347Z,2.90
2018-07-10T01:48:46.091Z,2.60
2018-07-10T01:51:13.845Z,2.80
2018-07-10T01:53:41.972Z,2.37
2018-07-10T01:56:09.794Z,2.60
2018-07-10T01:58:37.581Z,2.70
2018-07-10T02:01:05.888Z,2.53
2018-07-10T02:03:34.364Z,2.40
2018-07-10T02:06:03.125Z,2.67
2018-07-10T02:08:31.041Z,2.50
2018-07-10T02:10:58.760Z,2.47
2018-07-10T02:13:26.507Z,2.70
2018-07-10T02:15:54.457Z,2.40
2018-07-10T02:18:22.146Z,2.67
2018-07-10T02:20:54.706Z,2.80
2018-07-10T02:23:22.889Z,2.60
2018-07-10T02:25:50.880Z,2.37
2018-07-10T02:28:19.189Z,2.60
2018-07-10T02:30:48.288Z,2.20
2018-07-10T02:33:16.178Z,2.50
2018-07-10T02:35:43.889Z,2.57
2018-07-10T02:38:12.509Z,2.70
2018-07-10T02:40:40.303Z,2.97
2018-07-10T02:43:08.078Z,2.90
2018-07-10T02:45:36.110Z,2.30
2018-07-10T02:48:03.901Z,2.37
2018-07-10T02:50:32.296Z,2.83
2018-07-10T02:53:00.172Z,2.53
2018-07-10T02:55:29.056Z,3.00
2018-07-10T02:57:56.798Z,2.70
2018-07-10T03:00:25.059Z,2.77
2018-07-10T03:02:52.840Z,2.90
2018-07-10T03:05:20.901Z,2.80
2018-07-10T03:07:49.009Z,2.77
2018-07-10T03:10:16.793Z,2.67
2018-07-10T03:12:44.820Z,3.13
2018-07-10T03:15:13.716Z,2.83
2018-07-10T03:17:41.436Z,2.97
2018-07-10T03:20:09.497Z,2.80
2018-07-10T03:22:37.558Z,3.00
2018-07-10T03:25:06.036Z,3.43
2018-07-10T03:27:33.884Z,2.90
2018-07-10T03:30:02.386Z,3.03
2018-07-10T03:32:30.356Z,3.20
2018-07-10T03:34:58.165Z,3.00
2018-07-10T03:37:26.547Z,3.27
2018-07-10T03:39:54.886Z,3.30
2018-07-10T03:42:24.290Z,3.37
2018-07-10T03:44:52.293Z,3.13
2018-07-10T03:47:20.005Z,3.10
2018-07-10T03:49:48.018Z,3.30
2018-07-10T03:52:25.598Z,3.10
2018-07-10T03:54:54.473Z,3.13
2018-07-10T03:57:25.322Z,3.10
2018-07-10T03:59:58.127Z,3.60
2018-07-10T04:02:26.189Z,3.40
2018-07-10T04:04:54.430Z,3.13
2018-07-10T04:07:22.638Z,3.07
2018-07-10T04:09:51.970Z,2.90
2018-07-10T04:12:19.719Z,3.17
2018-07-10T04:14:47.737Z,3.27
2018-07-10T04:17:15.627Z,3.23
2018-07-10T04:19:43.740Z,2.90
2018-07-10T04:22:14.501Z,3.40
2018-07-10T04:24:42.758Z,3.43
2018-07-10T04:27:21.392Z,3.43
2018-07-10T04:29:56.905Z,3.10
2018-07-10T04:32:24.823Z,3.10
2018-07-10T04:34:52.721Z,3.27
2018-07-10T04:37:20.713Z,3.10
2018-07-10T04:39:48.662Z,3.40
2018-07-10T04:42:27.275Z,3.30
2018-07-10T04:45:03.605Z,3.77
2018-07-10T04:47:39.056Z,3.80
2018-07-10T04:50:20.474Z,3.73
2018-07-10T04:52:53.282Z,3.20
2018-07-10T04:55:21.088Z,3.10
2018-07-10T04:57:57.294Z,3.40
2018-07-10T05:00:25.683Z,3.33
2018-07-10T05:02:54.481Z,3.17
2018-07-10T05:05:23.388Z,3.47
2018-07-10T05:07:52.223Z,3.10
2018-07-10T05:10:20.165Z,3.37
2018-07-10T05:12:48.004Z,2.90
2018-07-10T05:15:15.819Z,2.80
2018-07-10T05:17:44.430Z,2.77
2018-07-10T05:20:12.337Z,2.70
2018-07-10T05:22:40.477Z,3.30
2018-07-10T05:25:08.689Z,2.80
2018-07-10T05:27:36.564Z,3.00
2018-07-10T05:30:04.302Z,3.20
2018-07-10T05:32:32.585Z,3.10
2018-07-10T05:35:01.751Z,3.13
2018-07-10T05:37:33.038Z,2.93
2018-07-10T05:40:03.533Z,3.07
2018-07-10T05:42:31.325Z,2.87
2018-07-10T05:45:00.252Z,3.00
2018-07-10T05:47:29.377Z,3.00
2018-07-10T05:50:07.029Z,2.83
2018-07-10T05:52:35.620Z,2.50
2018-07-10T05:55:03.855Z,2.60
2018-07-10T05:57:31.645Z,2.50
2018-07-10T06:00:00.056Z,2.40
2018-07-10T06:02:27.814Z,2.40
2018-07-10T06:04:55.632Z,2.23
2018-07-10T06:07:23.914Z,2.17
2018-07-10T06:09:52.019Z,1.87
2018-07-10T06:12:19.779Z,2.07
2018-07-10T06:14:47.769Z,1.93
2018-07-10T06:17:16.674Z,1.90
2018-07-10T06:19:44.488Z,1.90
2018-07-10T06:22:12.368Z,2.03
2018-07-10T06:24:40.274Z,2.17
2018-07-10T06:27:08.232Z,2.20
2018-07-10T06:29:55.663Z,1.93
2018-07-10T06:32:23.619Z,1.93
2018-07-10T06:35:12.412Z,1.77
2018-07-10T06:37:41.683Z,2.03
2018-07-10T06:40:09.578Z,2.20
2018-07-10T06:42:43.074Z,2.20
2018-07-10T06:45:11.100Z,2.00
2018-07-10T06:47:40.603Z,1.80
2018-07-10T06:50:08.324Z,1.97
2018-07-10T06:52:36.283Z,2.10
2018-07-10T06:55:04.819Z,2.30
2018-07-10T06:57:34.692Z,2.17
2018-07-10T07:00:06.023Z,2.00
2018-07-10T07:02:35.156Z,2.10
2018-07-10T07:05:03.321Z,2.17
2018-07-10T07:07:32.841Z,2.13
2018-07-10T07:10:02.792Z,1.80
2018-07-10T07:12:31.231Z,2.10
2018-07-10T07:14:59.199Z,1.80
2018-07-10T07:17:27.784Z,1.80
2018-07-10T07:19:55.814Z,1.80
2018-07-10T07:22:23.547Z,1.73
2018-07-10T07:24:51.325Z,1.70
2018-07-10T07:27:19.638Z,1.90
2018-07-10T07:29:47.368Z,1.73
2018-07-10T07:32:15.213Z,1.80
2018-07-10T07:34:43.556Z,1.80
2018-07-10T07:37:11.258Z,1.70
2018-07-10T07:39:39.026Z,1.77
2018-07-10T07:42:07.753Z,1.70
2018-07-10T07:44:35.524Z,1.60
2018-07-10T07:47:03.299Z,1.60
2018-07-10T07:49:31.867Z,1.70
2018-07-10T07:51:59.976Z,1.70
2018-07-10T07:54:28.506Z,1.93
2018-07-10T07:56:56.325Z,1.77
2018-07-10T08:00:26.823Z,1.80
2018-07-10T08:02:59.205Z,1.93
2018-07-10T08:05:26.882Z,1.83
2018-07-10T08:07:54.765Z,1.60
2018-07-10T08:10:22.712Z,2.10
2018-07-10T08:12:50.449Z,1.93
2018-07-10T08:15:18.287Z,2.10
2018-07-10T08:17:46.379Z,1.90
2018-07-10T08:20:14.755Z,1.90
2018-07-10T08:22:42.540Z,1.80
2018-07-10T08:25:10.671Z,1.90
2018-07-10T08:27:39.188Z,1.70
2018-07-10T08:30:07.466Z,1.67
2018-07-10T08:32:36.822Z,1.70
2018-07-10T08:35:04.577Z,1.57
2018-07-10T08:37:32.394Z,1.40
2018-07-10T08:40:00.298Z,1.70
2018-07-10T08:42:28.208Z,1.53
2018-07-10T08:44:55.977Z,1.80
2018-07-10T08:47:24.100Z,1.87
2018-07-10T08:49:51.955Z,1.70
2018-07-10T08:52:19.709Z,1.80
2018-07-10T08:54:47.816Z,1.93
2018-07-10T08:57:15.475Z,1.60
2018-07-10T08:59:43.286Z,1.50
2018-07-10T09:02:11.259Z,1.70
2018-07-10T09:04:38.998Z,1.50
2018-07-10T09:07:06.715Z,1.87
2018-07-10T09:09:34.796Z,1.60
2018-07-10T09:12:02.575Z,1.70
2018-07-10T09:14:30.316Z,1.50
2018-07-10T09:16:58.042Z,1.60
2018-07-10T09:19:27.765Z,1.40
2018-07-10T09:22:09.180Z,1.80
2018-07-10T09:24:46.931Z,2.27
2018-07-10T09:27:17.656Z,1.87
2018-07-10T09:29:46.043Z,1.80
2018-07-10T09:32:13.903Z,1.77
2018-07-10T09:34:42.158Z,1.83
2018-07-10T09:37:16.198Z,2.00
2018-07-10T09:39:44.362Z,1.90
2018-07-10T09:42:12.180Z,2.00
2018-07-10T09:44:40.914Z,1.80
2018-07-10T09:47:09.243Z,1.90
2018-07-10T09:49:38.707Z,1.87
2018-07-10T09:52:06.405Z,2.00
2018-07-10T09:54:34.555Z,1.80
2018-07-10T09:57:02.355Z,1.93
2018-07-10T09:59:30.201Z,1.83
2018-07-10T10:02:02.986Z,2.03
2018-07-10T10:04:31.029Z,1.87
2018-07-10T10:06:58.864Z,1.93
2018-07-10T10:09:26.749Z,2.23
2018-07-10T10:11:54.543Z,2.07
2018-07-10T10:14:24.154Z,2.40
2018-07-10T10:16:51.975Z,1.90
2018-07-10T10:19:19.742Z,2.30
2018-07-10T10:21:47.676Z,2.20
2018-07-10T10:24:17.183Z,2.17
2018-07-10T10:26:44.999Z,2.20
2018-07-10T10:29:13.033Z,2.30
2018-07-10T10:31:40.991Z,2.20
2018-07-10T10:34:08.669Z,2.00
2018-07-10T10:36:36.414Z,2.20
2018-07-10T10:39:04.267Z,2.27
2018-07-10T10:41:32.271Z,2.20
2018-07-10T10:44:00.117Z,2.20
2018-07-10T10:46:28.147Z,2.00
2018-07-10T10:48:55.918Z,2.40
2018-07-10T10:51:23.842Z,2.23
2018-07-10T10:53:52.247Z,2.40
2018-07-10T10:56:19.986Z,2.37
2018-07-10T10:58:48.108Z,2.57
2018-07-10T11:01:16.554Z,2.80
2018-07-10T11:03:44.264Z,2.57
2018-07-10T11:06:12.065Z,2.40
2018-07-10T11:08:40.010Z,2.63
2018-07-10T11:11:07.798Z,2.93
2018-07-10T11:13:35.712Z,2.60
2018-07-10T11:16:03.709Z,2.80
2018-07-10T11:19:07.571Z,2.97
2018-07-10T11:21:42.715Z,2.67
2018-07-10T11:24:10.708Z,3.13
2018-07-10T11:26:41.933Z,3.27
2018-07-10T11:29:09.858Z,2.43
2018-07-10T11:31:37.935Z,2.60
2018-07-10T11:34:06.571Z,2.50
2018-07-10T11:36:34.498Z,2.30
2018-07-10T11:39:07.543Z,2.67
2018-07-10T11:41:47.354Z,3.07
2018-07-10T11:44:15.154Z,2.50
2018-07-10T11:46:42.889Z,2.20
2018-07-10T11:49:10.777Z,3.07
2018-07-10T11:51:38.647Z,2.80
2018-07-10T11:54:06.352Z,2.97
2018-07-10T11:56:34.334Z,2.60
2018-07-10T11:59:02.822Z,2.70
2018-07-10T12:01:31.491Z,2.87
2018-07-10T12:03:59.976Z,2.90
2018-07-10T12:06:27.879Z,2.60
2018-07-10T12:08:57.091Z,2.77
2018-07-10T12:11:27.160Z,2.90
2018-07-10T12:13:55.088Z,2.70
2018-07-10T12:16:22.849Z,2.73
2018-07-10T12:18:50.716Z,3.00
2018-07-10T12:21:19.548Z,2.90
2018-07-10T12:23:47.356Z,2.90
2018-07-10T12:26:15.575Z,3.10
2018-07-10T12:28:43.544Z,3.47
2018-07-10T12:31:11.829Z,3.40
2018-07-10T12:33:39.655Z,3.27
2018-07-10T12:36:07.670Z,3.10
2018-07-10T12:38:35.460Z,3.10
2018-07-10T12:41:03.231Z,3.50
2018-07-10T12:43:31.777Z,3.27
2018-07-10T12:45:59.486Z,3.40
2018-07-10T12:48:27.266Z,2.90
2018-07-10T12:50:55.214Z,2.97
2018-07-10T12:53:24.253Z,2.70
2018-07-10T12:55:52.033Z,2.50
2018-07-10T12:58:19.873Z,2.50
2018-07-10T13:00:47.634Z,2.47
2018-07-10T13:03:15.868Z,2.47
2018-07-10T13:05:48.332Z,2.80
2018-07-10T13:08:16.432Z,2.33
2018-07-10T13:10:44.429Z,2.40
2018-07-10T13:13:12.480Z,2.77
2018-07-10T13:15:40.282Z,2.60
2018-07-10T13:18:08.165Z,2.57
2018-07-10T13:20:36.050Z,2.40
2018-07-10T13:23:03.792Z,2.60
2018-07-10T13:25:31.592Z,2.57
2018-07-10T13:27:59.785Z,2.40
2018-07-10T13:30:27.528Z,2.37
2018-07-10T13:32:55.218Z,2.07
2018-07-10T13:35:23.227Z,1.93
2018-07-10T13:37:51.440Z,2.20
2018-07-10T13:40:19.409Z,2.17
2018-07-10T13:43:01.931Z,2.30
2018-07-10T13:45:30.966Z,2.30
2018-07-10T13:47:59.017Z,1.93
2018-07-10T13:50:28.744Z,2.10
2018-07-10T13:52:57.680Z,2.20
2018-07-10T13:55:25.815Z,2.27
2018-07-10T13:58:05.632Z,1.80
2018-07-10T14:00:36.824Z,2.10
2018-07-10T14:03:04.641Z,2.27
2018-07-10T14:05:32.310Z,2.53
2018-07-10T14:08:00.235Z,1.90
2018-07-10T14:10:27.987Z,2.00
2018-07-10T14:12:56.193Z,2.23
2018-07-10T14:15:24.253Z,1.90
2018-07-10T14:18:23.275Z,2.40
2018-07-10T14:20:53.606Z,2.00
2018-07-10T14:23:21.810Z,1.90
2018-07-10T14:25:50.231Z,2.10
2018-07-10T14:28:18.195Z,2.20
2018-07-10T14:30:46.063Z,2.37
2018-07-10T14:33:14.092Z,2.20
2018-07-10T14:35:42.280Z,2.10
2018-07-10T14:38:11.555Z,1.80
2018-07-10T14:40:43.248Z,2.43
2018-07-10T14:43:11.620Z,2.40
2018-07-10T14:45:39.362Z,2.07
2018-07-10T14:48:07.787Z,1.90
2018-07-10T14:50:35.854Z,1.90
2018-07-10T14:53:04.667Z,1.83
2018-07-10T14:55:32.673Z,1.90
2018-07-10T14:58:00.536Z,1.73
2018-07-10T15:00:28.294Z,1.77
2018-07-10T15:02:56.588Z,2.13
2018-07-10T15:05:24.330Z,2.00
2018-07-10T15:07:52.295Z,1.97
2018-07-10T15:10:20.015Z,1.90
2018-07-10T15:12:47.709Z,2.00
2018-07-10T15:15:15.612Z,1.73
2018-07-10T15:17:49.284Z,2.20
2018-07-10T15:20:17.235Z,2.33
2018-07-10T15:22:45.112Z,1.80
2018-07-10T15:25:12.783Z,1.70
2018-07-10T15:27:40.696Z,1.83
2018-07-10T15:30:08.751Z,1.87
2018-07-10T15:32:36.486Z,1.80
2018-07-10T15:35:04.360Z,1.97
2018-07-10T15:37:32.193Z,2.00
2018-07-10T15:40:00.066Z,1.83
2018-07-10T15:42:28.000Z,1.80
2018-07-10T15:44:56.663Z,1.83
2018-07-10T15:47:24.390Z,2.13
2018-07-10T15:49:52.332Z,2.00
2018-07-10T15:52:20.223Z,2.10
2018-07-10T15:54:47.974Z,1.93
2018-07-10T15:57:15.853Z,1.70
2018-07-10T15:59:43.640Z,1.70
2018-07-10T16:02:11.393Z,1.50
2018-07-10T16:04:39.293Z,1.67
2018-07-10T16:07:07.209Z,1.60
2018-07-10T16:09:36.039Z,1.73
2018-07-10T16:12:04.483Z,1.60
2018-07-10T16:14:32.710Z,1.70
2018-07-10T16:17:04.910Z,1.70
2018-07-10T16:19:34.912Z,1.23
2018-07-10T16:22:06.650Z,1.30
2018-07-10T16:24:41.470Z,1.30
2018-07-10T16:27:09.244Z,1.20
2018-07-10T16:29:37.195Z,1.20
2018-07-10T16:32:05.984Z,1.30
2018-07-10T16:34:33.977Z,1.30
2018-07-10T16:37:02.759Z,1.10
2018-07-10T16:39:30.854Z,1.20
2018-07-10T16:42:04.361Z,1.20
2018-07-10T16:44:32.526Z,1.23
2018-07-10T16:47:08.480Z,1.00
2018-07-10T16:49:44.589Z,1.00
2018-07-10T16:52:17.615Z,1.10
2018-07-10T16:54:46.028Z,1.07
2018-07-10T16:57:13.814Z,1.20
2018-07-10T16:59:42.609Z,1.23
2018-07-10T17:02:10.837Z,0.90
2018-07-10T17:04:38.661Z,0.80
2018-07-10T17:07:06.339Z,1.10
2018-07-10T17:09:34.523Z,1.07
2018-07-10T17:12:02.307Z,1.00
2018-07-10T17:14:30.049Z,1.03
2018-07-10T17:16:57.895Z,1.10
2018-07-10T17:19:25.674Z,1.07
2018-07-10T17:21:55.035Z,0.90
2018-07-10T17:24:23.224Z,0.83
2018-07-10T17:26:52.029Z,1.00
2018-07-10T17:29:19.825Z,1.00
2018-07-10T17:31:48.062Z,0.93
2018-07-10T17:34:15.826Z,0.70
2018-07-10T17:36:43.595Z,0.90
2018-07-10T17:39:11.973Z,0.90
2018-07-10T17:41:41.017Z,1.00
2018-07-10T17:44:10.033Z,1.00
2018-07-10T17:46:38.344Z,1.17
2018-07-10T17:49:06.039Z,0.80
2018-07-10T17:51:33.850Z,0.80
2018-07-10T17:54:02.254Z,0.90
2018-07-10T17:56:30.184Z,0.73
2018-07-10T17:58:58.986Z,0.80
2018-07-10T18:01:27.035Z,0.80
2018-07-10T18:03:54.786Z,0.87
2018-07-10T18:06:22.596Z,0.60
2018-07-10T18:08:50.597Z,0.80
2018-07-10T18:11:18.345Z,0.80
2018-07-10T18:13:46.084Z,0.70
2018-07-10T18:16:14.293Z,0.80
2018-07-10T18:18:42.005Z,0.80
2018-07-10T18:21:09.783Z,0.60
2018-07-10T18:23:38.121Z,0.83
2018-07-10T18:26:05.927Z,0.60
2018-07-10T18:28:33.643Z,1.00
2018-07-10T18:31:01.501Z,0.63
2018-07-10T18:33:29.285Z,1.00
2018-07-10T18:35:58.369Z,0.70
2018-07-10T18:38:26.586Z,0.80
2018-07-10T18:40:54.337Z,0.77
2018-07-10T18:43:22.057Z,0.70
2018-07-10T18:45:50.140Z,0.90
2018-07-10T18:48:22.229Z,0.80
2018-07-10T18:50:50.112Z,1.00
2018-07-10T18:53:18.432Z,0.90
2018-07-10T18:55:46.422Z,0.90
2018-07-10T18:58:25.755Z,0.80
2018-07-10T19:01:06.654Z,0.63
2018-07-10T19:03:34.831Z,0.63
2018-07-10T19:06:11.325Z,0.70
2018-07-10T19:08:41.155Z,0.90
2018-07-10T19:11:08.972Z,0.60
2018-07-10T19:13:36.711Z,0.80
2018-07-10T19:16:04.691Z,0.70
2018-07-10T19:18:33.008Z,1.13
2018-07-10T19:21:23.182Z,0.70
2018-07-10T19:23:51.243Z,0.60
2018-07-10T19:26:24.021Z,0.80
2018-07-10T19:28:52.168Z,0.77
2018-07-10T19:31:25.293Z,0.70
2018-07-10T19:33:55.523Z,0.70
2018-07-10T19:36:23.477Z,0.73
2018-07-10T19:38:51.290Z,0.77
2018-07-10T19:41:19.781Z,0.70
2018-07-10T19:43:47.693Z,0.60
2018-07-10T19:46:15.599Z,0.70
2018-07-10T19:48:47.593Z,0.73
2018-07-10T19:51:15.566Z,0.70
2018-07-10T19:53:46.753Z,0.90
2018-07-10T19:56:14.771Z,0.87
2018-07-10T19:58:44.144Z,1.00
2018-07-10T20:01:24.332Z,0.80
2018-07-10T20:04:09.347Z,1.07
2018-07-10T20:07:41.280Z,1.00
2018-07-10T20:10:15.710Z,1.30
2018-07-10T20:13:49.584Z,0.93
2018-07-10T20:16:31.445Z,1.00
2018-07-10T20:19:12.925Z,0.90
2018-07-10T20:21:50.001Z,0.90
2018-07-10T20:24:19.891Z,1.00
2018-07-10T20:26:57.305Z,1.13
2018-07-10T20:29:40.186Z,1.00
2018-07-10T20:32:08.066Z,1.30
2018-07-10T20:34:46.921Z,1.20
2018-07-10T20:37:19.936Z,1.20
2018-07-10T20:39:47.776Z,1.40
2018-07-10T20:42:16.398Z,0.90
2018-07-10T20:44:53.513Z,1.20
2018-07-10T20:47:21.571Z,1.27
2018-07-10T20:49:55.228Z,1.30
2018-07-10T20:52:30.694Z,1.40
2018-07-10T20:55:03.782Z,1.63
2018-07-10T20:58:07.097Z,1.20
2018-07-10T21:00:39.916Z,1.23
2018-07-10T21:03:33.204Z,1.13
2018-07-10T21:06:06.396Z,1.20
2018-07-10T21:08:37.457Z,1.27
2018-07-10T21:11:14.996Z,1.20
2018-07-10T21:13:50.189Z,1.33
2018-07-10T21:16:25.641Z,1.10
2018-07-10T21:19:01.725Z,1.00
2018-07-10T21:21:42.981Z,1.17
2018-07-10T21:24:17.266Z,1.23
2018-07-10T21:26:53.812Z,1.13
2018-07-10T21:29:55.565Z,1.20
2018-07-10T21:34:39.068Z,1.43
2018-07-10T21:37:12.094Z,1.17
2018-07-10T21:40:12.252Z,1.13
2018-07-10T21:43:04.448Z,1.23
2018-07-10T21:45:52.042Z,1.23
2018-07-10T21:48:38.573Z,1.30
2018-07-10T21:51:06.271Z,1.17
2018-07-10T21:53:34.178Z,1.10
2018-07-10T21:56:01.849Z,1.07
2018-07-10T21:58:29.762Z,1.17
2018-07-10T22:02:05.534Z,1.03
2018-07-10T22:04:34.766Z,1.07
2018-07-10T22:07:03.671Z,1.30
2018-07-10T22:09:32.953Z,1.10
2018-07-10T22:12:03.757Z,1.10
2018-07-10T22:14:31.449Z,0.83
2018-07-10T22:17:01.832Z,1.13
2018-07-10T22:19:30.373Z,1.10
2018-07-10T22:21:58.099Z,1.27
2018-07-10T22:24:26.741Z,1.17
2018-07-10T22:26:57.292Z,1.30
2018-07-10T22:29:30.618Z,1.40
2018-07-10T22:32:05.816Z,1.23
2018-07-10T22:34:33.538Z,1.37
2018-07-10T22:37:01.779Z,1.20
2018-07-10T22:39:29.513Z,1.83
2018-07-10T22:41:59.863Z,1.13
2018-07-10T22:44:28.669Z,1.40
2018-07-10T22:46:57.093Z,1.30
2018-07-10T22:49:25.524Z,1.30
2018-07-10T22:51:54.761Z,1.60
2018-07-10T22:54:22.533Z,1.50
2018-07-10T22:56:50.269Z,1.30
2018-07-10T22:59:18.188Z,1.43
2018-07-10T23:01:46.044Z,1.40
2018-07-10T23:04:13.903Z,1.50
2018-07-10T23:06:41.848Z,1.30
2018-07-10T23:09:09.407Z,1.37
2018-07-10T23:11:37.830Z,1.43
2018-07-10T23:14:05.599Z,1.73
2018-07-10T23:16:40.448Z,1.43
2018-07-10T23:19:08.581Z,1.30
2018-07-10T23:21:37.856Z,1.53
2018-07-10T23:24:06.041Z,1.40
2018-07-10T23:26:34.321Z,1.50
2018-07-10T23:29:02.687Z,1.20
2018-07-10T23:31:30.699Z,1.27
2018-07-10T23:34:19.946Z,1.67
2018-07-10T23:36:54.762Z,1.40
2018-07-10T23:39:37.657Z,1.20
2018-07-10T23:42:09.838Z,1.40
2018-07-10T23:44:42.247Z,1.40
2018-07-10T23:47:18.516Z,1.70
2018-07-10T23:49:47.314Z,1.43
2018-07-10T23:52:25.878Z,1.50
2018-07-10T23:54:53.650Z,1.40
2018-07-10T23:57:21.380Z,1.53
2018-07-10T23:59:49.081Z,1.40
